sensor_id;sensor_type;location;lat;lon;timestamp;P1;durP1;ratioP1;P2;durP2;ratioP2
26951;SDS011;14507;52.418;13.398;2023-02-28T00:02:17;11.57;;;4.88;;
26951;SDS011;14507;52.418;13.398;2023-02-28T00:04:43;11.65;;;5.20;;
26951;SDS011;14507;52.418;13.398;2023-02-28T00:07:09;10.20;;;4.75;;
26951;SDS011;14507;52.418;13.398;2023-02-28T00:09:35;9.50;;;4.65;;
26951;SDS011;14507;52.418;13.398;2023-02-28T00:12:00;11.02;;;4.35;;
26951;SDS011;14507;52.418;13.398;2023-02-28T00:14:35;11.07;;;5.35;;
26951;SDS011;14507;52.418;13.398;2023-02-28T00:17:01;11.20;;;5.22;;
26951;SDS011;14507;52.418;13.398;2023-02-28T00:19:27;10.73;;;5.80;;
26951;SDS011;14507;52.418;13.398;2023-02-28T00:21:53;11.23;;;5.43;;
26951;SDS011;14507;52.418;13.398;2023-02-28T00:24:18;15.25;;;6.30;;
26951;SDS011;14507;52.418;13.398;2023-02-28T00:26:44;12.55;;;5.95;;
26951;SDS011;14507;52.418;13.398;2023-02-28T00:29:10;10.70;;;5.38;;
26951;SDS011;14507;52.418;13.398;2023-02-28T00:31:35;11.13;;;5.82;;
26951;SDS011;14507;52.418;13.398;2023-02-28T00:34:01;10.35;;;5.47;;
26951;SDS011;14507;52.418;13.398;2023-02-28T00:36:26;13.38;;;6.25;;
26951;SDS011;14507;52.418;13.398;2023-02-28T00:38:52;11.05;;;5.50;;
26951;SDS011;14507;52.418;13.398;2023-02-28T00:41:18;12.15;;;6.00;;
26951;SDS011;14507;52.418;13.398;2023-02-28T00:43:43;12.07;;;5.40;;
26951;SDS011;14507;52.418;13.398;2023-02-28T00:46:09;11.73;;;6.03;;
26951;SDS011;14507;52.418;13.398;2023-02-28T00:48:35;15.48;;;5.63;;
26951;SDS011;14507;52.418;13.398;2023-02-28T00:51:01;13.40;;;5.40;;
26951;SDS011;14507;52.418;13.398;2023-02-28T00:53:27;14.35;;;5.53;;
26951;SDS011;14507;52.418;13.398;2023-02-28T00:55:53;12.93;;;5.78;;
26951;SDS011;14507;52.418;13.398;2023-02-28T00:58:19;12.57;;;5.28;;
26951;SDS011;14507;52.418;13.398;2023-02-28T01:00:45;12.30;;;5.53;;
26951;SDS011;14507;52.418;13.398;2023-02-28T01:03:14;12.70;;;5.13;;
26951;SDS011;14507;52.418;13.398;2023-02-28T01:05:43;9.27;;;4.45;;
26951;SDS011;14507;52.418;13.398;2023-02-28T01:08:09;11.40;;;5.68;;
26951;SDS011;14507;52.418;13.398;2023-02-28T01:10:35;11.75;;;5.68;;
26951;SDS011;14507;52.418;13.398;2023-02-28T01:13:02;10.63;;;5.38;;
26951;SDS011;14507;52.418;13.398;2023-02-28T01:15:27;13.18;;;5.38;;
26951;SDS011;14507;52.418;13.398;2023-02-28T01:17:53;11.68;;;5.60;;
26951;SDS011;14507;52.418;13.398;2023-02-28T01:20:19;17.75;;;6.47;;
26951;SDS011;14507;52.418;13.398;2023-02-28T01:22:45;13.85;;;6.13;;
26951;SDS011;14507;52.418;13.398;2023-02-28T01:25:11;16.42;;;6.25;;
26951;SDS011;14507;52.418;13.398;2023-02-28T01:27:37;13.55;;;6.25;;
26951;SDS011;14507;52.418;13.398;2023-02-28T01:30:04;16.25;;;6.55;;
26951;SDS011;14507;52.418;13.398;2023-02-28T01:32:31;13.30;;;6.17;;
26951;SDS011;14507;52.418;13.398;2023-02-28T01:34:57;16.13;;;6.35;;
26951;SDS011;14507;52.418;13.398;2023-02-28T01:37:22;15.48;;;6.57;;
26951;SDS011;14507;52.418;13.398;2023-02-28T01:39:48;13.23;;;6.25;;
26951;SDS011;14507;52.418;13.398;2023-02-28T01:42:14;16.42;;;6.50;;
26951;SDS011;14507;52.418;13.398;2023-02-28T01:47:38;15.95;;;6.10;;
26951;SDS011;14507;52.418;13.398;2023-02-28T01:50:07;11.35;;;5.60;;
26951;SDS011;14507;52.418;13.398;2023-02-28T01:52:38;11.73;;;5.25;;
26951;SDS011;14507;52.418;13.398;2023-02-28T01:55:04;13.70;;;5.30;;
26951;SDS011;14507;52.418;13.398;2023-02-28T01:57:32;11.68;;;5.95;;
26951;SDS011;14507;52.418;13.398;2023-02-28T02:00:04;13.43;;;5.55;;
26951;SDS011;14507;52.418;13.398;2023-02-28T02:02:33;14.45;;;5.72;;
26951;SDS011;14507;52.418;13.398;2023-02-28T02:05:03;11.23;;;5.60;;
26951;SDS011;14507;52.418;13.398;2023-02-28T02:07:38;14.93;;;5.70;;
26951;SDS011;14507;52.418;13.398;2023-02-28T02:15:16;12.75;;;6.15;;
26951;SDS011;14507;52.418;13.398;2023-02-28T02:17:51;13.10;;;6.53;;
26951;SDS011;14507;52.418;13.398;2023-02-28T02:23:30;13.90;;;5.72;;
26951;SDS011;14507;52.418;13.398;2023-02-28T02:31:53;13.75;;;6.50;;
26951;SDS011;14507;52.418;13.398;2023-02-28T02:34:37;11.50;;;5.90;;
26951;SDS011;14507;52.418;13.398;2023-02-28T02:45:40;12.73;;;6.15;;
26951;SDS011;14507;52.418;13.398;2023-02-28T02:48:09;13.80;;;6.35;;
26951;SDS011;14507;52.418;13.398;2023-02-28T02:50:59;12.77;;;5.40;;
26951;SDS011;14507;52.418;13.398;2023-02-28T02:53:30;12.88;;;6.40;;
26951;SDS011;14507;52.418;13.398;2023-02-28T02:56:00;13.63;;;7.07;;
26951;SDS011;14507;52.418;13.398;2023-02-28T02:58:29;14.68;;;6.28;;
26951;SDS011;14507;52.418;13.398;2023-02-28T03:01:00;14.55;;;6.75;;
26951;SDS011;14507;52.418;13.398;2023-02-28T03:03:27;15.98;;;6.45;;
26951;SDS011;14507;52.418;13.398;2023-02-28T03:05:55;13.98;;;6.60;;
26951;SDS011;14507;52.418;13.398;2023-02-28T03:08:25;14.63;;;6.60;;
26951;SDS011;14507;52.418;13.398;2023-02-28T03:10:56;14.03;;;6.30;;
26951;SDS011;14507;52.418;13.398;2023-02-28T03:24:40;17.48;;;7.25;;
26951;SDS011;14507;52.418;13.398;2023-02-28T03:27:19;13.45;;;6.35;;
26951;SDS011;14507;52.418;13.398;2023-02-28T03:32:23;15.15;;;7.03;;
26951;SDS011;14507;52.418;13.398;2023-02-28T03:35:01;17.23;;;7.25;;
26951;SDS011;14507;52.418;13.398;2023-02-28T03:37:40;15.02;;;7.15;;
26951;SDS011;14507;52.418;13.398;2023-02-28T03:40:11;14.20;;;7.57;;
26951;SDS011;14507;52.418;13.398;2023-02-28T03:42:43;11.98;;;6.70;;
26951;SDS011;14507;52.418;13.398;2023-02-28T03:45:16;15.75;;;7.55;;
26951;SDS011;14507;52.418;13.398;2023-02-28T03:47:52;17.23;;;7.28;;
26951;SDS011;14507;52.418;13.398;2023-02-28T03:53:19;13.20;;;6.85;;
26951;SDS011;14507;52.418;13.398;2023-02-28T03:56:19;19.38;;;8.05;;
26951;SDS011;14507;52.418;13.398;2023-02-28T04:01:36;12.95;;;7.03;;
26951;SDS011;14507;52.418;13.398;2023-02-28T04:04:06;15.80;;;7.15;;
26951;SDS011;14507;52.418;13.398;2023-02-28T04:06:33;16.25;;;7.65;;
26951;SDS011;14507;52.418;13.398;2023-02-28T04:09:00;13.60;;;7.07;;
26951;SDS011;14507;52.418;13.398;2023-02-28T04:11:37;15.65;;;7.30;;
26951;SDS011;14507;52.418;13.398;2023-02-28T04:14:06;15.85;;;7.45;;
26951;SDS011;14507;52.418;13.398;2023-02-28T04:16:33;17.73;;;7.63;;
26951;SDS011;14507;52.418;13.398;2023-02-28T04:19:00;19.73;;;7.93;;
26951;SDS011;14507;52.418;13.398;2023-02-28T04:21:28;12.95;;;7.03;;
26951;SDS011;14507;52.418;13.398;2023-02-28T04:23:54;20.35;;;8.27;;
26951;SDS011;14507;52.418;13.398;2023-02-28T04:26:20;12.60;;;7.10;;
26951;SDS011;14507;52.418;13.398;2023-02-28T04:28:46;16.52;;;7.05;;
26951;SDS011;14507;52.418;13.398;2023-02-28T04:31:11;13.02;;;7.15;;
26951;SDS011;14507;52.418;13.398;2023-02-28T04:33:37;14.20;;;7.22;;
26951;SDS011;14507;52.418;13.398;2023-02-28T04:36:04;14.90;;;7.65;;
26951;SDS011;14507;52.418;13.398;2023-02-28T04:38:35;15.38;;;8.05;;
26951;SDS011;14507;52.418;13.398;2023-02-28T04:41:02;19.42;;;8.18;;
26951;SDS011;14507;52.418;13.398;2023-02-28T04:43:28;21.77;;;8.10;;
26951;SDS011;14507;52.418;13.398;2023-02-28T04:45:55;18.67;;;8.50;;
26951;SDS011;14507;52.418;13.398;2023-02-28T04:48:23;14.57;;;7.43;;
26951;SDS011;14507;52.418;13.398;2023-02-28T04:50:49;16.67;;;8.17;;
26951;SDS011;14507;52.418;13.398;2023-02-28T04:53:15;16.10;;;7.78;;
26951;SDS011;14507;52.418;13.398;2023-02-28T04:55:41;14.30;;;8.15;;
26951;SDS011;14507;52.418;13.398;2023-02-28T04:58:07;18.50;;;8.20;;
26951;SDS011;14507;52.418;13.398;2023-02-28T05:00:32;14.60;;;7.75;;
26951;SDS011;14507;52.418;13.398;2023-02-28T05:02:58;15.57;;;8.15;;
26951;SDS011;14507;52.418;13.398;2023-02-28T05:05:23;16.88;;;7.82;;
26951;SDS011;14507;52.418;13.398;2023-02-28T05:07:49;15.90;;;7.93;;
26951;SDS011;14507;52.418;13.398;2023-02-28T05:10:15;16.67;;;7.72;;
26951;SDS011;14507;52.418;13.398;2023-02-28T05:12:41;17.60;;;7.75;;
26951;SDS011;14507;52.418;13.398;2023-02-28T05:15:07;17.50;;;8.20;;
26951;SDS011;14507;52.418;13.398;2023-02-28T05:17:37;20.13;;;8.90;;
26951;SDS011;14507;52.418;13.398;2023-02-28T05:20:03;18.33;;;8.50;;
26951;SDS011;14507;52.418;13.398;2023-02-28T05:22:29;17.10;;;9.00;;
26951;SDS011;14507;52.418;13.398;2023-02-28T05:24:56;16.77;;;8.65;;
26951;SDS011;14507;52.418;13.398;2023-02-28T05:27:22;18.55;;;9.15;;
26951;SDS011;14507;52.418;13.398;2023-02-28T05:29:48;20.13;;;8.77;;
26951;SDS011;14507;52.418;13.398;2023-02-28T05:32:13;20.17;;;9.43;;
26951;SDS011;14507;52.418;13.398;2023-02-28T05:34:40;16.63;;;8.48;;
26951;SDS011;14507;52.418;13.398;2023-02-28T05:37:06;20.10;;;9.10;;
26951;SDS011;14507;52.418;13.398;2023-02-28T05:39:36;17.17;;;8.93;;
26951;SDS011;14507;52.418;13.398;2023-02-28T05:42:02;19.83;;;8.48;;
26951;SDS011;14507;52.418;13.398;2023-02-28T05:44:27;16.23;;;8.57;;
26951;SDS011;14507;52.418;13.398;2023-02-28T05:46:53;23.10;;;9.10;;
26951;SDS011;14507;52.418;13.398;2023-02-28T05:49:19;20.65;;;9.18;;
26951;SDS011;14507;52.418;13.398;2023-02-28T05:51:44;18.48;;;8.88;;
26951;SDS011;14507;52.418;13.398;2023-02-28T05:54:10;15.43;;;8.10;;
26951;SDS011;14507;52.418;13.398;2023-02-28T05:56:36;19.75;;;8.77;;
26951;SDS011;14507;52.418;13.398;2023-02-28T05:59:04;19.35;;;9.00;;
26951;SDS011;14507;52.418;13.398;2023-02-28T06:01:38;17.05;;;8.20;;
26951;SDS011;14507;52.418;13.398;2023-02-28T06:04:06;18.83;;;9.18;;
26951;SDS011;14507;52.418;13.398;2023-02-28T06:06:33;17.27;;;8.15;;
26951;SDS011;14507;52.418;13.398;2023-02-28T06:08:59;20.23;;;9.05;;
26951;SDS011;14507;52.418;13.398;2023-02-28T06:11:26;18.33;;;9.77;;
26951;SDS011;14507;52.418;13.398;2023-02-28T06:13:56;17.75;;;8.38;;
26951;SDS011;14507;52.418;13.398;2023-02-28T06:16:24;19.15;;;9.25;;
26951;SDS011;14507;52.418;13.398;2023-02-28T06:18:51;16.73;;;9.18;;
26951;SDS011;14507;52.418;13.398;2023-02-28T06:21:17;22.55;;;10.32;;
26951;SDS011;14507;52.418;13.398;2023-02-28T06:23:43;18.98;;;8.60;;
26951;SDS011;14507;52.418;13.398;2023-02-28T06:26:10;17.50;;;9.05;;
26951;SDS011;14507;52.418;13.398;2023-02-28T06:28:36;19.83;;;9.15;;
26951;SDS011;14507;52.418;13.398;2023-02-28T06:31:05;16.88;;;8.63;;
26951;SDS011;14507;52.418;13.398;2023-02-28T06:33:36;20.50;;;8.65;;
26951;SDS011;14507;52.418;13.398;2023-02-28T06:36:03;21.70;;;8.98;;
26951;SDS011;14507;52.418;13.398;2023-02-28T06:38:29;14.77;;;8.27;;
26951;SDS011;14507;52.418;13.398;2023-02-28T06:40:56;17.52;;;8.68;;
26951;SDS011;14507;52.418;13.398;2023-02-28T06:43:23;16.42;;;8.98;;
26951;SDS011;14507;52.418;13.398;2023-02-28T06:45:49;19.42;;;9.45;;
26951;SDS011;14507;52.418;13.398;2023-02-28T06:48:15;18.10;;;9.65;;
26951;SDS011;14507;52.418;13.398;2023-02-28T06:50:41;19.13;;;9.10;;
26951;SDS011;14507;52.418;13.398;2023-02-28T06:53:07;20.52;;;10.13;;
26951;SDS011;14507;52.418;13.398;2023-02-28T06:55:33;21.27;;;10.45;;
26951;SDS011;14507;52.418;13.398;2023-02-28T06:57:58;17.75;;;9.25;;
26951;SDS011;14507;52.418;13.398;2023-02-28T07:00:24;21.05;;;8.43;;
26951;SDS011;14507;52.418;13.398;2023-02-28T07:02:50;20.67;;;9.60;;
26951;SDS011;14507;52.418;13.398;2023-02-28T07:05:15;16.52;;;9.05;;
26951;SDS011;14507;52.418;13.398;2023-02-28T07:07:41;19.42;;;9.75;;
26951;SDS011;14507;52.418;13.398;2023-02-28T07:10:10;17.80;;;8.55;;
26951;SDS011;14507;52.418;13.398;2023-02-28T07:12:36;16.90;;;9.15;;
26951;SDS011;14507;52.418;13.398;2023-02-28T07:15:03;14.68;;;8.45;;
26951;SDS011;14507;52.418;13.398;2023-02-28T07:17:30;17.90;;;9.40;;
26951;SDS011;14507;52.418;13.398;2023-02-28T07:19:55;23.67;;;10.13;;
26951;SDS011;14507;52.418;13.398;2023-02-28T07:22:21;17.20;;;8.77;;
26951;SDS011;14507;52.418;13.398;2023-02-28T07:24:47;18.20;;;8.15;;
26951;SDS011;14507;52.418;13.398;2023-02-28T07:27:12;18.02;;;8.38;;
26951;SDS011;14507;52.418;13.398;2023-02-28T07:29:50;18.77;;;8.07;;
26951;SDS011;14507;52.418;13.398;2023-02-28T07:32:16;18.33;;;8.75;;
26951;SDS011;14507;52.418;13.398;2023-02-28T07:34:43;19.00;;;8.27;;
26951;SDS011;14507;52.418;13.398;2023-02-28T07:37:09;17.00;;;8.43;;
26951;SDS011;14507;52.418;13.398;2023-02-28T07:39:34;19.70;;;9.30;;
26951;SDS011;14507;52.418;13.398;2023-02-28T07:42:03;15.77;;;8.35;;
26951;SDS011;14507;52.418;13.398;2023-02-28T07:44:29;19.35;;;8.50;;
26951;SDS011;14507;52.418;13.398;2023-02-28T07:46:55;22.98;;;8.73;;
26951;SDS011;14507;52.418;13.398;2023-02-28T07:49:21;16.25;;;8.95;;
26951;SDS011;14507;52.418;13.398;2023-02-28T07:51:46;17.23;;;8.57;;
26951;SDS011;14507;52.418;13.398;2023-02-28T07:54:12;28.60;;;11.90;;
26951;SDS011;14507;52.418;13.398;2023-02-28T07:56:38;17.63;;;8.35;;
26951;SDS011;14507;52.418;13.398;2023-02-28T07:59:04;14.30;;;7.45;;
26951;SDS011;14507;52.418;13.398;2023-02-28T08:01:29;17.60;;;7.47;;
26951;SDS011;14507;52.418;13.398;2023-02-28T08:03:55;16.80;;;7.25;;
26951;SDS011;14507;52.418;13.398;2023-02-28T08:06:22;14.30;;;6.95;;
26951;SDS011;14507;52.418;13.398;2023-02-28T08:08:49;15.20;;;6.50;;
26951;SDS011;14507;52.418;13.398;2023-02-28T08:11:16;13.63;;;6.25;;
26951;SDS011;14507;52.418;13.398;2023-02-28T08:13:43;13.40;;;6.25;;
26951;SDS011;14507;52.418;13.398;2023-02-28T08:16:10;13.25;;;6.15;;
26951;SDS011;14507;52.418;13.398;2023-02-28T08:18:39;13.15;;;6.10;;
26951;SDS011;14507;52.418;13.398;2023-02-28T08:21:08;15.63;;;6.65;;
26951;SDS011;14507;52.418;13.398;2023-02-28T08:23:34;10.55;;;5.72;;
26951;SDS011;14507;52.418;13.398;2023-02-28T08:26:00;9.63;;;4.65;;
26951;SDS011;14507;52.418;13.398;2023-02-28T08:28:27;8.98;;;4.07;;
26951;SDS011;14507;52.418;13.398;2023-02-28T08:30:52;10.00;;;4.28;;
26951;SDS011;14507;52.418;13.398;2023-02-28T08:33:19;11.23;;;3.90;;
26951;SDS011;14507;52.418;13.398;2023-02-28T08:35:45;11.00;;;4.65;;
26951;SDS011;14507;52.418;13.398;2023-02-28T08:38:10;11.07;;;4.88;;
26951;SDS011;14507;52.418;13.398;2023-02-28T08:40:36;12.10;;;4.80;;
26951;SDS011;14507;52.418;13.398;2023-02-28T08:43:02;13.43;;;4.53;;
26951;SDS011;14507;52.418;13.398;2023-02-28T08:45:28;10.93;;;5.15;;
26951;SDS011;14507;52.418;13.398;2023-02-28T08:47:54;12.85;;;5.75;;
26951;SDS011;14507;52.418;13.398;2023-02-28T08:50:20;12.57;;;6.07;;
26951;SDS011;14507;52.418;13.398;2023-02-28T08:52:46;12.30;;;5.63;;
26951;SDS011;14507;52.418;13.398;2023-02-28T08:55:12;15.20;;;5.50;;
26951;SDS011;14507;52.418;13.398;2023-02-28T08:57:38;9.88;;;4.38;;
26951;SDS011;14507;52.418;13.398;2023-02-28T09:00:04;12.02;;;4.40;;
26951;SDS011;14507;52.418;13.398;2023-02-28T09:02:30;15.45;;;4.07;;
26951;SDS011;14507;52.418;13.398;2023-02-28T09:04:56;10.73;;;3.60;;
26951;SDS011;14507;52.418;13.398;2023-02-28T09:07:23;10.55;;;3.85;;
26951;SDS011;14507;52.418;13.398;2023-02-28T09:09:49;10.35;;;4.05;;
26951;SDS011;14507;52.418;13.398;2023-02-28T09:12:23;8.40;;;3.92;;
26951;SDS011;14507;52.418;13.398;2023-02-28T09:14:50;10.85;;;3.90;;
26951;SDS011;14507;52.418;13.398;2023-02-28T09:17:16;9.90;;;3.08;;
26951;SDS011;14507;52.418;13.398;2023-02-28T09:19:42;10.18;;;3.30;;
26951;SDS011;14507;52.418;13.398;2023-02-28T09:22:08;6.38;;;2.75;;
26951;SDS011;14507;52.418;13.398;2023-02-28T09:24:35;9.48;;;3.00;;
26951;SDS011;14507;52.418;13.398;2023-02-28T09:27:02;7.57;;;2.95;;
26951;SDS011;14507;52.418;13.398;2023-02-28T09:29:27;7.97;;;2.72;;
26951;SDS011;14507;52.418;13.398;2023-02-28T09:31:53;12.60;;;3.80;;
26951;SDS011;14507;52.418;13.398;2023-02-28T09:34:19;9.80;;;3.42;;
26951;SDS011;14507;52.418;13.398;2023-02-28T09:36:44;6.72;;;2.55;;
26951;SDS011;14507;52.418;13.398;2023-02-28T09:39:10;7.18;;;2.83;;
26951;SDS011;14507;52.418;13.398;2023-02-28T09:41:41;6.43;;;2.75;;
26951;SDS011;14507;52.418;13.398;2023-02-28T09:47:05;8.93;;;2.80;;
26951;SDS011;14507;52.418;13.398;2023-02-28T09:49:42;7.43;;;3.10;;
26951;SDS011;14507;52.418;13.398;2023-02-28T09:52:14;9.82;;;2.40;;
26951;SDS011;14507;52.418;13.398;2023-02-28T09:54:44;10.32;;;2.97;;
26951;SDS011;14507;52.418;13.398;2023-02-28T09:57:15;6.05;;;2.60;;
26951;SDS011;14507;52.418;13.398;2023-02-28T10:06:08;8.30;;;2.63;;
26951;SDS011;14507;52.418;13.398;2023-02-28T10:08:50;4.65;;;2.50;;
26951;SDS011;14507;52.418;13.398;2023-02-28T10:11:19;8.00;;;2.38;;
26951;SDS011;14507;52.418;13.398;2023-02-28T10:22:14;5.32;;;2.58;;
26951;SDS011;14507;52.418;13.398;2023-02-28T10:27:16;4.55;;;2.42;;
26951;SDS011;14507;52.418;13.398;2023-02-28T10:29:46;6.15;;;2.20;;
26951;SDS011;14507;52.418;13.398;2023-02-28T10:32:15;5.70;;;2.40;;
26951;SDS011;14507;52.418;13.398;2023-02-28T10:34:44;6.38;;;2.30;;
26951;SDS011;14507;52.418;13.398;2023-02-28T10:37:11;6.43;;;2.80;;
26951;SDS011;14507;52.418;13.398;2023-02-28T10:39:45;5.88;;;2.38;;
26951;SDS011;14507;52.418;13.398;2023-02-28T10:42:22;11.20;;;2.70;;
26951;SDS011;14507;52.418;13.398;2023-02-28T10:45:12;6.05;;;2.72;;
26951;SDS011;14507;52.418;13.398;2023-02-28T10:48:40;5.40;;;2.35;;
26951;SDS011;14507;52.418;13.398;2023-02-28T10:50:42;7.82;;;2.78;;
26951;SDS011;14507;52.418;13.398;2023-02-28T10:53:25;6.55;;;2.63;;
26951;SDS011;14507;52.418;13.398;2023-02-28T11:01:24;9.32;;;2.47;;
26951;SDS011;14507;52.418;13.398;2023-02-28T11:03:53;8.75;;;2.70;;
26951;SDS011;14507;52.418;13.398;2023-02-28T11:06:20;10.05;;;2.97;;
26951;SDS011;14507;52.418;13.398;2023-02-28T11:08:58;8.05;;;2.63;;
26951;SDS011;14507;52.418;13.398;2023-02-28T11:11:42;13.82;;;2.92;;
26951;SDS011;14507;52.418;13.398;2023-02-28T11:14:28;5.95;;;2.67;;
26951;SDS011;14507;52.418;13.398;2023-02-28T11:16:55;8.77;;;3.25;;
26951;SDS011;14507;52.418;13.398;2023-02-28T11:19:40;5.75;;;2.60;;
26951;SDS011;14507;52.418;13.398;2023-02-28T11:22:11;7.55;;;2.67;;
26951;SDS011;14507;52.418;13.398;2023-02-28T11:24:44;7.95;;;2.70;;
26951;SDS011;14507;52.418;13.398;2023-02-28T11:29:59;5.68;;;2.78;;
26951;SDS011;14507;52.418;13.398;2023-02-28T11:32:28;10.02;;;3.10;;
26951;SDS011;14507;52.418;13.398;2023-02-28T11:35:14;7.72;;;2.75;;
26951;SDS011;14507;52.418;13.398;2023-02-28T11:37:48;6.32;;;2.97;;
26951;SDS011;14507;52.418;13.398;2023-02-28T11:40:14;5.05;;;2.33;;
26951;SDS011;14507;52.418;13.398;2023-02-28T11:45:44;9.23;;;3.10;;
26951;SDS011;14507;52.418;13.398;2023-02-28T11:49:02;7.55;;;3.38;;
26951;SDS011;14507;52.418;13.398;2023-02-28T11:51:18;8.98;;;3.08;;
26951;SDS011;14507;52.418;13.398;2023-02-28T11:54:02;8.95;;;3.13;;
26951;SDS011;14507;52.418;13.398;2023-02-28T11:56:53;8.60;;;3.40;;
26951;SDS011;14507;52.418;13.398;2023-02-28T11:59:46;7.00;;;3.00;;
26951;SDS011;14507;52.418;13.398;2023-02-28T12:02:41;7.45;;;3.13;;
26951;SDS011;14507;52.418;13.398;2023-02-28T12:05:56;7.65;;;2.72;;
26951;SDS011;14507;52.418;13.398;2023-02-28T12:11:32;7.00;;;2.88;;
26951;SDS011;14507;52.418;13.398;2023-02-28T12:27:58;7.77;;;2.87;;
26951;SDS011;14507;52.418;13.398;2023-02-28T12:30:31;5.35;;;2.72;;
26951;SDS011;14507;52.418;13.398;2023-02-28T12:33:05;6.10;;;3.13;;
26951;SDS011;14507;52.418;13.398;2023-02-28T12:35:37;6.20;;;3.22;;
26951;SDS011;14507;52.418;13.398;2023-02-28T12:38:26;8.65;;;3.50;;
26951;SDS011;14507;52.418;13.398;2023-02-28T12:43:46;7.05;;;3.22;;
26951;SDS011;14507;52.418;13.398;2023-02-28T12:46:22;7.40;;;3.58;;
26951;SDS011;14507;52.418;13.398;2023-02-28T12:48:55;7.15;;;3.25;;
26951;SDS011;14507;52.418;13.398;2023-02-28T12:51:22;8.93;;;3.60;;
26951;SDS011;14507;52.418;13.398;2023-02-28T13:10:40;5.28;;;3.15;;
26951;SDS011;14507;52.418;13.398;2023-02-28T13:13:15;8.43;;;3.38;;
26951;SDS011;14507;52.418;13.398;2023-02-28T13:15:56;6.68;;;3.53;;
26951;SDS011;14507;52.418;13.398;2023-02-28T13:20:57;6.90;;;3.22;;
26951;SDS011;14507;52.418;13.398;2023-02-28T13:24:09;7.28;;;3.60;;
26951;SDS011;14507;52.418;13.398;2023-02-28T13:26:12;6.95;;;3.33;;
26951;SDS011;14507;52.418;13.398;2023-02-28T13:31:22;9.52;;;4.10;;
26951;SDS011;14507;52.418;13.398;2023-02-28T13:38:43;11.80;;;3.88;;
26951;SDS011;14507;52.418;13.398;2023-02-28T13:51:55;8.35;;;3.25;;
26951;SDS011;14507;52.418;13.398;2023-02-28T14:03:05;10.27;;;3.17;;
26951;SDS011;14507;52.418;13.398;2023-02-28T14:05:33;6.18;;;3.13;;
26951;SDS011;14507;52.418;13.398;2023-02-28T14:08:04;7.40;;;2.97;;
26951;SDS011;14507;52.418;13.398;2023-02-28T14:10:39;11.10;;;3.30;;
26951;SDS011;14507;52.418;13.398;2023-02-28T14:13:57;5.53;;;2.90;;
26951;SDS011;14507;52.418;13.398;2023-02-28T14:16:09;9.93;;;3.75;;
26951;SDS011;14507;52.418;13.398;2023-02-28T14:18:39;6.35;;;2.90;;
26951;SDS011;14507;52.418;13.398;2023-02-28T14:21:21;7.60;;;3.15;;
26951;SDS011;14507;52.418;13.398;2023-02-28T14:26:29;8.57;;;3.60;;
26951;SDS011;14507;52.418;13.398;2023-02-28T14:29:24;11.30;;;3.47;;
26951;SDS011;14507;52.418;13.398;2023-02-28T14:37:27;9.90;;;3.42;;
26951;SDS011;14507;52.418;13.398;2023-02-28T14:39:57;8.48;;;3.25;;
26951;SDS011;14507;52.418;13.398;2023-02-28T14:42:35;8.05;;;3.20;;
26951;SDS011;14507;52.418;13.398;2023-02-28T14:45:03;9.73;;;3.78;;
26951;SDS011;14507;52.418;13.398;2023-02-28T14:47:32;6.03;;;3.05;;
26951;SDS011;14507;52.418;13.398;2023-02-28T14:50:00;10.80;;;3.67;;
26951;SDS011;14507;52.418;13.398;2023-02-28T14:52:29;7.43;;;3.60;;
26951;SDS011;14507;52.418;13.398;2023-02-28T14:54:58;10.57;;;3.47;;
26951;SDS011;14507;52.418;13.398;2023-02-28T14:57:27;9.38;;;3.35;;
26951;SDS011;14507;52.418;13.398;2023-02-28T15:00:55;9.75;;;3.80;;
26951;SDS011;14507;52.418;13.398;2023-02-28T15:02:49;8.82;;;3.60;;
26951;SDS011;14507;52.418;13.398;2023-02-28T15:07:43;10.45;;;4.30;;
26951;SDS011;14507;52.418;13.398;2023-02-28T15:12:41;10.68;;;3.75;;
26951;SDS011;14507;52.418;13.398;2023-02-28T15:15:15;7.72;;;3.67;;
26951;SDS011;14507;52.418;13.398;2023-02-28T15:17:42;9.27;;;3.70;;
26951;SDS011;14507;52.418;13.398;2023-02-28T15:20:12;10.75;;;3.95;;
26951;SDS011;14507;52.418;13.398;2023-02-28T15:22:40;7.13;;;3.70;;
26951;SDS011;14507;52.418;13.398;2023-02-28T15:25:07;8.30;;;3.38;;
26951;SDS011;14507;52.418;13.398;2023-02-28T15:27:39;9.32;;;3.67;;
26951;SDS011;14507;52.418;13.398;2023-02-28T15:30:17;10.00;;;4.15;;
26951;SDS011;14507;52.418;13.398;2023-02-28T15:35:37;11.02;;;4.15;;
26951;SDS011;14507;52.418;13.398;2023-02-28T15:38:05;8.40;;;3.65;;
26951;SDS011;14507;52.418;13.398;2023-02-28T15:40:53;9.32;;;4.25;;
26951;SDS011;14507;52.418;13.398;2023-02-28T15:43:25;9.55;;;4.32;;
26951;SDS011;14507;52.418;13.398;2023-02-28T15:45:56;13.63;;;4.65;;
26951;SDS011;14507;52.418;13.398;2023-02-28T15:50:49;11.60;;;4.38;;
26951;SDS011;14507;52.418;13.398;2023-02-28T15:53:22;10.98;;;4.43;;
26951;SDS011;14507;52.418;13.398;2023-02-28T15:56:21;9.63;;;4.80;;
26951;SDS011;14507;52.418;13.398;2023-02-28T15:58:47;7.40;;;4.07;;
26951;SDS011;14507;52.418;13.398;2023-02-28T16:01:19;10.65;;;4.15;;
26951;SDS011;14507;52.418;13.398;2023-02-28T16:03:50;13.85;;;4.40;;
26951;SDS011;14507;52.418;13.398;2023-02-28T16:08:47;11.50;;;4.80;;
26951;SDS011;14507;52.418;13.398;2023-02-28T16:11:14;11.48;;;4.40;;
26951;SDS011;14507;52.418;13.398;2023-02-28T16:13:40;9.45;;;4.38;;
26951;SDS011;14507;52.418;13.398;2023-02-28T16:16:05;12.43;;;4.53;;
26951;SDS011;14507;52.418;13.398;2023-02-28T16:18:31;11.77;;;4.35;;
26951;SDS011;14507;52.418;13.398;2023-02-28T16:20:57;9.45;;;4.40;;
26951;SDS011;14507;52.418;13.398;2023-02-28T16:23:22;7.93;;;4.10;;
26951;SDS011;14507;52.418;13.398;2023-02-28T16:25:48;9.70;;;3.85;;
26951;SDS011;14507;52.418;13.398;2023-02-28T16:30:45;14.98;;;4.57;;
26951;SDS011;14507;52.418;13.398;2023-02-28T16:33:11;10.40;;;3.88;;
26951;SDS011;14507;52.418;13.398;2023-02-28T16:35:37;11.07;;;4.55;;
26951;SDS011;14507;52.418;13.398;2023-02-28T16:38:02;8.70;;;4.47;;
26951;SDS011;14507;52.418;13.398;2023-02-28T16:40:28;15.38;;;4.22;;
26951;SDS011;14507;52.418;13.398;2023-02-28T16:42:59;9.93;;;4.07;;
26951;SDS011;14507;52.418;13.398;2023-02-28T16:45:27;10.90;;;4.30;;
26951;SDS011;14507;52.418;13.398;2023-02-28T16:47:53;10.68;;;4.05;;
26951;SDS011;14507;52.418;13.398;2023-02-28T16:50:21;7.93;;;3.70;;
26951;SDS011;14507;52.418;13.398;2023-02-28T16:52:49;8.20;;;4.05;;
26951;SDS011;14507;52.418;13.398;2023-02-28T16:55:17;8.25;;;3.92;;
26951;SDS011;14507;52.418;13.398;2023-02-28T16:57:43;8.95;;;4.10;;
26951;SDS011;14507;52.418;13.398;2023-02-28T17:00:12;7.05;;;3.65;;
26951;SDS011;14507;52.418;13.398;2023-02-28T17:02:39;10.38;;;4.03;;
26951;SDS011;14507;52.418;13.398;2023-02-28T17:05:05;13.40;;;3.85;;
26951;SDS011;14507;52.418;13.398;2023-02-28T17:07:31;9.90;;;4.10;;
26951;SDS011;14507;52.418;13.398;2023-02-28T17:09:57;10.50;;;4.78;;
26951;SDS011;14507;52.418;13.398;2023-02-28T17:12:23;10.90;;;5.13;;
26951;SDS011;14507;52.418;13.398;2023-02-28T17:14:49;11.80;;;4.75;;
26951;SDS011;14507;52.418;13.398;2023-02-28T17:17:18;11.68;;;5.40;;
26951;SDS011;14507;52.418;13.398;2023-02-28T17:19:46;16.52;;;7.05;;
26951;SDS011;14507;52.418;13.398;2023-02-28T17:22:12;16.30;;;5.90;;
26951;SDS011;14507;52.418;13.398;2023-02-28T17:24:38;12.20;;;5.20;;
26951;SDS011;14507;52.418;13.398;2023-02-28T17:27:03;16.65;;;5.30;;